Time;durP1;ratioP1;P1;durP2;ratioP2;P2;SDS_P1;SDS_P2;PMS_P1;PMS_P2;Temp;Humidity;BMP_temperature;BMP_pressure;BME280_temperature;BME280_humidity;BME280_pressure;Samples;Min_cycle;Max_cycle;Signal;HPM_P1;HPM_P2
2022/02/27 00:00:17;;;;;;;0.75;0.60;;;20.40;37.20;;;;;;5096818;28;20051;-74
2022/02/27 00:02:43;;;;;;;0.63;0.52;;;20.40;37.30;;;;;;5115098;28;20044;-73
2022/02/27 00:05:09;;;;;;;0.52;0.50;;;20.50;37.30;;;;;;5115013;28;20537;-74
2022/02/27 00:07:34;;;;;;;0.80;0.60;;;20.40;37.20;;;;;;5096637;28;20043;-74
2022/02/27 00:10:00;;;;;;;1.10;0.60;;;20.40;37.20;;;;;;5114984;28;20047;-73
2022/02/27 00:12:25;;;;;;;0.98;0.70;;;20.40;37.20;;;;;;5115047;28;20048;-73
2022/02/27 00:14:51;;;;;;;1.38;0.65;;;20.40;37.20;;;;;;5114908;28;20055;-74
2022/02/27 00:17:17;;;;;;;0.70;0.63;;;20.50;37.30;;;;;;5114898;28;20055;-73
2022/02/27 00:19:43;;;;;;;0.60;0.60;;;20.40;37.20;;;;;;5114692;28;20055;-73
2022/02/27 00:22:08;;;;;;;0.95;0.63;;;20.50;37.30;;;;;;5095852;28;20056;-73
2022/02/27 00:24:34;;;;;;;0.70;0.55;;;20.40;37.20;;;;;;5114752;28;20052;-73
2022/02/27 00:26:59;;;;;;;1.00;0.68;;;20.40;37.20;;;;;;5115210;28;20134;-73
2022/02/27 00:29:25;;;;;;;0.98;0.70;;;20.40;37.20;;;;;;5095756;28;20074;-73
2022/02/27 00:31:51;;;;;;;0.90;0.82;;;20.40;37.20;;;;;;5096210;28;20047;-73
2022/02/27 00:34:17;;;;;;;0.95;0.60;;;20.40;37.20;;;;;;5114172;28;20055;-73
2022/02/27 00:36:44;;;;;;;1.33;0.70;;;20.50;37.30;;;;;;5095227;28;20058;-73
2022/02/27 00:39:10;;;;;;;0.75;0.65;;;20.40;37.20;;;;;;5114642;28;20058;-73
2022/02/27 00:41:38;;;;;;;0.47;0.40;;;20.40;37.20;;;;;;5114453;28;20071;-73
2022/02/27 00:44:05;;;;;;;0.57;0.57;;;20.40;37.20;;;;;;5114468;28;20122;-73
2022/02/27 00:46:31;;;;;;;0.77;0.52;;;20.40;37.20;;;;;;5096428;28;20058;-73
2022/02/27 00:48:56;;;;;;;0.70;0.52;;;20.40;37.20;;;;;;5113913;28;20055;-74
2022/02/27 00:51:22;;;;;;;0.50;0.50;;;20.40;37.30;;;;;;5114494;28;20044;-73
2022/02/27 00:53:48;;;;;;;0.50;0.50;;;20.40;37.20;;;;;;5095739;28;20050;-74
2022/02/27 00:56:13;;;;;;;0.93;0.80;;;20.40;37.20;;;;;;5094860;28;20176;-74
2022/02/27 00:58:41;;;;;;;0.77;0.60;;;20.50;37.30;;;;;;5094464;28;20100;-74
2022/02/27 01:01:06;;;;;;;0.60;0.60;;;20.40;37.20;;;;;;5114039;28;20429;-74
2022/02/27 01:03:32;;;;;;;0.65;0.65;;;20.40;37.20;;;;;;5113377;28;20110;-74
2022/02/27 01:05:57;;;;;;;1.00;0.80;;;20.40;37.20;;;;;;5113924;28;20059;-73
2022/02/27 01:08:23;;;;;;;0.93;0.60;;;20.40;37.20;;;;;;5114146;28;20399;-74
2022/02/27 01:10:48;;;;;;;0.75;0.60;;;20.40;37.20;;;;;;5096251;28;20404;-74
2022/02/27 01:13:14;;;;;;;0.65;0.60;;;20.40;37.20;;;;;;5094301;28;20138;-74
2022/02/27 01:15:39;;;;;;;0.82;0.80;;;20.40;37.20;;;;;;5095753;28;20056;-74
2022/02/27 01:18:05;;;;;;;1.15;0.80;;;20.40;37.20;;;;;;5078570;28;20058;-74
2022/02/27 01:20:31;;;;;;;0.70;0.63;;;20.40;37.20;;;;;;5094606;28;20161;-73
2022/02/27 01:22:56;;;;;;;0.70;0.70;;;20.40;37.20;;;;;;5114176;28;20483;-73
2022/02/27 01:25:22;;;;;;;1.38;0.68;;;20.40;37.20;;;;;;5113644;28;20039;-74
2022/02/27 01:27:47;;;;;;;0.77;0.60;;;20.40;37.20;;;;;;5095427;28;20044;-74
2022/02/27 01:30:13;;;;;;;0.45;0.45;;;20.50;37.20;;;;;;5113906;28;20399;-74
2022/02/27 01:32:38;;;;;;;0.63;0.60;;;20.50;37.20;;;;;;5095147;28;20056;-74
2022/02/27 01:35:08;;;;;;;1.25;0.70;;;20.40;37.20;;;;;;5113828;28;20047;-74
2022/02/27 01:37:35;;;;;;;0.60;0.60;;;20.40;37.20;;;;;;5113534;28;20055;-74
2022/02/27 01:40:00;;;;;;;0.40;0.40;;;20.40;37.20;;;;;;5113364;28;20376;-74
2022/02/27 01:42:26;;;;;;;0.88;0.57;;;20.40;37.20;;;;;;5095100;28;20059;-74
2022/02/27 01:44:53;;;;;;;0.40;0.40;;;20.40;37.20;;;;;;5095181;28;20263;-74
2022/02/27 01:47:18;;;;;;;0.68;0.63;;;20.40;37.20;;;;;;5113031;28;20575;-74
2022/02/27 01:49:45;;;;;;;0.77;0.60;;;20.40;37.20;;;;;;5093189;28;20492;-74
2022/02/27 01:52:12;;;;;;;1.05;0.63;;;20.40;37.20;;;;;;5113301;28;20138;-74
2022/02/27 01:54:39;;;;;;;0.50;0.50;;;20.50;37.20;;;;;;5094873;28;20055;-73
2022/02/27 01:57:09;;;;;;;0.60;0.50;;;20.50;37.20;;;;;;5112141;28;20437;-74
2022/02/27 01:59:37;;;;;;;1.02;0.80;;;20.40;37.20;;;;;;5113293;28;20520;-74
2022/02/27 02:02:04;;;;;;;0.75;0.60;;;20.50;37.20;;;;;;5113644;28;20054;-73
2022/02/27 02:04:31;;;;;;;0.60;0.60;;;20.40;37.20;;;;;;5113227;28;20051;-73
2022/02/27 02:06:57;;;;;;;0.75;0.50;;;20.40;37.20;;;;;;5077946;28;20071;-74
2022/02/27 02:09:22;;;;;;;0.65;0.60;;;20.50;37.20;;;;;;5113435;28;20043;-74
2022/02/27 02:11:51;;;;;;;0.60;0.60;;;20.40;37.10;;;;;;5094700;28;20051;-73
2022/02/27 02:14:18;;;;;;;0.82;0.60;;;20.40;37.10;;;;;;5094609;28;20399;-74
2022/02/27 02:16:46;;;;;;;0.70;0.50;;;20.50;37.20;;;;;;5094948;28;20055;-74
2022/02/27 02:19:15;;;;;;;0.60;0.57;;;20.40;37.20;;;;;;5093979;28;20059;-74
2022/02/27 02:21:47;;;;;;;0.50;0.50;;;20.40;37.10;;;;;;5094627;28;20043;-74
2022/02/27 02:24:16;;;;;;;0.55;0.55;;;20.40;37.10;;;;;;5111764;28;20083;-73
2022/02/27 02:26:44;;;;;;;0.77;0.55;;;20.50;37.20;;;;;;5094030;28;20063;-74
2022/02/27 02:29:12;;;;;;;0.45;0.45;;;20.50;37.20;;;;;;5094465;28;20051;-74
2022/02/27 02:31:39;;;;;;;0.68;0.60;;;20.50;37.20;;;;;;5095092;28;20084;-74
2022/02/27 02:34:09;;;;;;;1.13;0.60;;;20.40;37.20;;;;;;5094369;28;20098;-74
2022/02/27 02:36:36;;;;;;;0.57;0.57;;;20.50;37.20;;;;;;5112789;28;20052;-74
2022/02/27 02:39:07;;;;;;;0.60;0.60;;;20.40;37.10;;;;;;5094303;28;20062;-73
2022/02/27 02:41:36;;;;;;;0.50;0.50;;;20.40;37.20;;;;;;5094522;28;20198;-74
2022/02/27 02:44:07;;;;;;;1.05;0.90;;;20.40;37.20;;;;;;5095034;28;20437;-73
2022/02/27 02:46:39;;;;;;;1.23;0.60;;;20.50;37.20;;;;;;5094132;28;20392;-74
2022/02/27 02:49:07;;;;;;;0.85;0.70;;;20.50;37.20;;;;;;5094886;28;20055;-73
2022/02/27 02:51:46;;;;;;;1.05;0.70;;;20.50;37.20;;;;;;5094967;28;20498;-74
2022/02/27 02:54:12;;;;;;;1.08;0.60;;;20.50;37.20;;;;;;5076281;28;20137;-74
2022/02/27 02:56:40;;;;;;;0.40;0.40;;;20.50;37.10;;;;;;5111239;28;20052;-74
2022/02/27 02:59:07;;;;;;;0.55;0.55;;;20.50;37.10;;;;;;5114224;28;20051;-74
2022/02/27 03:01:33;;;;;;;0.75;0.75;;;20.50;37.20;;;;;;5115073;28;20055;-74
2022/02/27 03:04:00;;;;;;;0.60;0.50;;;20.50;37.10;;;;;;5115835;28;20055;-73
2022/02/27 03:06:26;;;;;;;0.63;0.60;;;20.50;37.20;;;;;;5116136;28;20428;-74
2022/02/27 03:08:52;;;;;;;0.52;0.52;;;20.50;37.10;;;;;;5115647;28;20047;-74
2022/02/27 03:11:19;;;;;;;0.80;0.80;;;20.50;37.20;;;;;;5115779;28;20138;-74
2022/02/27 03:13:45;;;;;;;0.70;0.60;;;20.50;37.10;;;;;;5096074;28;20047;-73
2022/02/27 03:16:11;;;;;;;1.45;0.70;;;20.50;37.10;;;;;;5115938;28;20060;-74
2022/02/27 03:18:38;;;;;;;0.98;0.73;;;20.40;37.10;;;;;;5115699;28;20087;-74
2022/02/27 03:21:04;;;;;;;0.75;0.52;;;20.50;37.20;;;;;;5115681;28;20052;-73
2022/02/27 03:23:31;;;;;;;0.57;0.50;;;20.50;37.10;;;;;;5115980;28;20044;-73
2022/02/27 03:25:58;;;;;;;0.65;0.60;;;20.50;37.10;;;;;;5097388;28;20058;-73
2022/02/27 03:28:23;;;;;;;0.75;0.68;;;20.50;37.10;;;;;;5115439;28;20055;-73
2022/02/27 03:30:50;;;;;;;0.60;0.60;;;20.50;37.10;;;;;;5114413;28;20115;-73
2022/02/27 03:33:16;;;;;;;0.63;0.50;;;20.50;37.10;;;;;;5112861;28;20081;-74
2022/02/27 03:35:42;;;;;;;1.10;0.70;;;20.50;37.10;;;;;;5115537;28;20482;-74
2022/02/27 03:38:07;;;;;;;0.70;0.60;;;20.50;37.10;;;;;;5115319;28;20124;-74
2022/02/27 03:40:33;;;;;;;0.55;0.55;;;20.50;37.10;;;;;;5115521;28;20085;-74
2022/02/27 03:42:59;;;;;;;0.50;0.50;;;20.50;37.70;;;;;;5115386;28;20047;-74
2022/02/27 03:45:24;;;;;;;0.70;0.70;;;20.50;37.10;;;;;;5115392;28;20201;-74
2022/02/27 03:47:50;;;;;;;0.60;0.52;;;20.50;37.10;;;;;;5096919;28;20105;-74
2022/02/27 03:50:17;;;;;;;0.63;0.60;;;20.50;37.10;;;;;;5115240;28;20067;-74
2022/02/27 03:52:43;;;;;;;0.50;0.50;;;20.50;37.10;;;;;;5096893;28;20130;-74
2022/02/27 03:55:11;;;;;;;0.75;0.70;;;20.50;37.10;;;;;;5113944;28;20059;-73
2022/02/27 03:57:37;;;;;;;0.50;0.50;;;20.50;37.10;;;;;;5113764;28;20180;-74
2022/02/27 04:00:06;;;;;;;0.98;0.60;;;20.50;37.10;;;;;;5115160;28;20051;-73
2022/02/27 04:02:38;;;;;;;0.80;0.70;;;20.50;37.10;;;;;;5115208;28;20116;-73
2022/02/27 04:05:04;;;;;;;0.65;0.65;;;20.50;37.10;;;;;;5095183;28;20484;-73
2022/02/27 04:07:30;;;;;;;0.60;0.60;;;20.50;37.00;;;;;;5115234;28;20051;-73
2022/02/27 04:09:55;;;;;;;0.60;0.60;;;20.50;37.10;;;;;;5114612;28;20138;-73
2022/02/27 04:12:21;;;;;;;0.70;0.70;;;20.50;37.10;;;;;;5113680;28;20130;-74
2022/02/27 04:14:47;;;;;;;0.98;0.50;;;20.40;37.00;;;;;;5096600;28;20059;-74
2022/02/27 04:17:13;;;;;;;0.70;0.70;;;20.40;37.00;;;;;;5095992;28;20066;-74
2022/02/27 04:19:38;;;;;;;1.02;0.70;;;20.40;37.10;;;;;;5113476;28;20142;-74
2022/02/27 04:22:04;;;;;;;0.88;0.70;;;20.50;37.10;;;;;;5114744;28;20051;-73
2022/02/27 04:24:30;;;;;;;0.55;0.55;;;20.50;37.10;;;;;;5114633;28;20062;-74
2022/02/27 04:26:55;;;;;;;0.68;0.68;;;20.50;37.10;;;;;;5114933;28;20051;-74
2022/02/27 04:29:21;;;;;;;0.75;0.70;;;20.50;37.10;;;;;;5114677;28;20047;-74
2022/02/27 04:31:46;;;;;;;0.95;0.70;;;20.50;37.10;;;;;;5114593;28;20449;-74
2022/02/27 04:34:12;;;;;;;1.17;0.50;;;20.50;37.10;;;;;;5114492;28;20054;-74
2022/02/27 04:36:39;;;;;;;0.77;0.68;;;20.50;37.10;;;;;;5115174;28;20135;-73
2022/02/27 04:39:06;;;;;;;0.50;0.50;;;20.50;37.10;;;;;;5094020;28;20093;-74
2022/02/27 04:41:31;;;;;;;0.70;0.60;;;20.50;37.10;;;;;;5114454;28;20078;-74
2022/02/27 04:43:57;;;;;;;0.50;0.50;;;20.50;37.10;;;;;;5111821;28;20134;-74
2022/02/27 04:46:22;;;;;;;0.43;0.43;;;20.50;37.10;;;;;;5114593;28;20476;-74
2022/02/27 04:48:48;;;;;;;0.50;0.43;;;20.50;37.60;;;;;;5112243;28;20709;-74
2022/02/27 04:51:13;;;;;;;0.70;0.70;;;20.50;37.00;;;;;;5114244;28;20427;-73
2022/02/27 04:53:39;;;;;;;0.73;0.60;;;20.50;37.60;;;;;;5114791;28;20459;-73
2022/02/27 04:56:05;;;;;;;0.57;0.57;;;20.50;37.00;;;;;;5114260;28;20588;-74
2022/02/27 04:58:31;;;;;;;1.23;0.60;;;20.50;37.00;;;;;;5114156;28;20442;-74
2022/02/27 05:00:56;;;;;;;0.70;0.70;;;20.50;37.10;;;;;;5114172;28;20466;-74
2022/02/27 05:03:22;;;;;;;0.50;0.50;;;20.50;37.10;;;;;;5114179;28;20054;-74
2022/02/27 05:05:47;;;;;;;0.60;0.55;;;20.50;37.00;;;;;;5114100;28;20368;-73
2022/02/27 05:08:13;;;;;;;0.70;0.60;;;20.50;37.10;;;;;;5113986;28;20100;-74
2022/02/27 05:10:39;;;;;;;0.50;0.50;;;20.50;37.10;;;;;;5114007;28;20062;-74
2022/02/27 05:13:05;;;;;;;0.65;0.63;;;20.50;37.10;;;;;;5113923;28;20502;-74
2022/02/27 05:15:30;;;;;;;0.77;0.70;;;20.50;37.00;;;;;;5113773;28;20044;-74
2022/02/27 05:17:57;;;;;;;1.30;0.57;;;20.50;37.10;;;;;;5113773;28;20054;-74
2022/02/27 05:20:23;;;;;;;0.50;0.50;;;20.50;37.10;;;;;;5113517;28;20142;-74
2022/02/27 05:22:49;;;;;;;0.63;0.63;;;20.50;37.10;;;;;;5113197;28;20185;-74
2022/02/27 05:25:18;;;;;;;0.77;0.63;;;20.50;37.10;;;;;;5095542;28;20054;-74
2022/02/27 05:27:48;;;;;;;1.25;0.65;;;20.50;37.00;;;;;;5113737;28;20054;-74
2022/02/27 05:30:14;;;;;;;0.70;0.63;;;20.50;37.00;;;;;;5113697;28;20052;-74
2022/02/27 05:32:39;;;;;;;1.02;0.90;;;20.50;37.00;;;;;;5113886;28;20055;-74
2022/02/27 05:35:06;;;;;;;0.50;0.50;;;20.50;37.00;;;;;;5113738;28;20063;-74
2022/02/27 05:37:32;;;;;;;1.13;0.73;;;20.50;37.00;;;;;;5095373;28;20047;-74
2022/02/27 05:39:57;;;;;;;0.70;0.70;;;20.50;37.00;;;;;;5113387;28;20058;-73
2022/02/27 05:42:23;;;;;;;0.60;0.60;;;20.50;37.00;;;;;;5113824;28;20051;-74
2022/02/27 05:44:49;;;;;;;0.75;0.60;;;20.50;37.00;;;;;;5114078;28;20133;-74
2022/02/27 05:47:14;;;;;;;0.60;0.60;;;20.50;37.20;;;;;;5113431;28;20051;-74
2022/02/27 05:49:40;;;;;;;0.50;0.50;;;20.40;37.00;;;;;;5113333;28;20100;-74
2022/02/27 05:52:06;;;;;;;0.85;0.70;;;20.50;37.00;;;;;;5113427;28;20047;-74
2022/02/27 05:54:31;;;;;;;0.77;0.77;;;20.50;37.00;;;;;;5113760;28;20047;-74
2022/02/27 05:56:57;;;;;;;0.82;0.60;;;20.50;37.00;;;;;;5113249;28;20056;-73
2022/02/27 05:59:22;;;;;;;0.85;0.70;;;20.40;37.00;;;;;;5094992;28;20059;-74
2022/02/27 06:01:49;;;;;;;0.70;0.50;;;20.40;37.00;;;;;;5113320;28;20047;-74
2022/02/27 06:04:18;;;;;;;0.55;0.50;;;20.40;37.00;;;;;;5113252;28;20062;-74
2022/02/27 06:06:43;;;;;;;0.52;0.52;;;20.40;37.00;;;;;;5113268;28;20055;-74
2022/02/27 06:09:09;;;;;;;1.17;0.80;;;20.40;37.00;;;;;;5110521;28;20064;-74
2022/02/27 06:11:36;;;;;;;0.60;0.60;;;20.50;37.00;;;;;;5113281;28;20100;-74
2022/02/27 06:14:03;;;;;;;0.63;0.63;;;20.50;37.00;;;;;;5113552;28;20047;-73
2022/02/27 06:16:29;;;;;;;0.40;0.40;;;20.50;37.00;;;;;;5112893;28;20465;-74
2022/02/27 06:18:55;;;;;;;0.60;0.50;;;20.50;37.00;;;;;;5112623;28;20510;-74
2022/02/27 06:21:21;;;;;;;0.50;0.50;;;20.50;37.00;;;;;;5094437;28;20051;-74
2022/02/27 06:23:47;;;;;;;0.43;0.43;;;20.50;37.00;;;;;;5113112;28;20120;-74
2022/02/27 06:26:12;;;;;;;1.08;0.68;;;20.50;37.00;;;;;;5112727;28;20052;-74
2022/02/27 06:28:38;;;;;;;0.65;0.57;;;20.50;36.90;;;;;;5094058;28;20044;-74
2022/02/27 06:31:03;;;;;;;0.70;0.70;;;20.60;36.80;;;;;;5112801;28;20104;-74
2022/02/27 06:33:29;;;;;;;0.70;0.70;;;20.60;36.80;;;;;;5115247;28;20043;-74
2022/02/27 06:35:55;;;;;;;0.70;0.70;;;20.70;36.70;;;;;;5116508;28;20431;-73
2022/02/27 06:38:21;;;;;;;0.57;0.57;;;20.70;36.60;;;;;;5116489;28;20058;-74
2022/02/27 06:40:47;;;;;;;0.80;0.70;;;20.80;36.50;;;;;;5098109;28;20556;-74
2022/02/27 06:43:13;;;;;;;0.57;0.57;;;20.80;36.50;;;;;;5116957;28;20135;-74
2022/02/27 06:45:38;;;;;;;0.70;0.70;;;20.90;36.70;;;;;;5116289;28;20075;-74
2022/02/27 06:48:04;;;;;;;1.05;0.80;;;20.90;36.90;;;;;;5096699;28;20048;-74
2022/02/27 06:50:30;;;;;;;0.63;0.63;;;21.00;36.30;;;;;;5115019;28;20087;-73
2022/02/27 06:52:55;;;;;;;0.82;0.75;;;21.00;36.20;;;;;;5116051;28;20058;-73
2022/02/27 06:55:21;;;;;;;0.60;0.60;;;21.10;36.10;;;;;;5116165;28;20058;-73
2022/02/27 06:57:48;;;;;;;0.75;0.50;;;21.10;36.00;;;;;;5116170;28;20053;-73
2022/02/27 07:00:15;;;;;;;0.80;0.50;;;21.20;36.00;;;;;;5116184;28;20052;-74
2022/02/27 07:02:40;;;;;;;0.50;0.50;;;21.20;35.90;;;;;;5116066;28;20047;-73
2022/02/27 07:05:06;;;;;;;0.52;0.50;;;21.20;35.80;;;;;;5113976;28;20047;-74
2022/02/27 07:07:33;;;;;;;1.13;0.82;;;21.30;35.80;;;;;;5115955;28;20047;-73
2022/02/27 07:10:01;;;;;;;0.50;0.50;;;21.30;35.70;;;;;;5115980;28;20395;-73
2022/02/27 07:12:31;;;;;;;0.70;0.70;;;21.40;35.60;;;;;;5097495;28;20090;-74
2022/02/27 07:14:57;;;;;;;0.93;0.75;;;21.40;35.50;;;;;;5115792;28;20043;-73
2022/02/27 07:17:24;;;;;;;0.73;0.50;;;21.50;35.50;;;;;;5115693;28;20043;-74
2022/02/27 07:19:50;;;;;;;0.60;0.60;;;21.50;35.40;;;;;;5114760;28;20058;-74
2022/02/27 07:22:17;;;;;;;0.60;0.60;;;21.60;35.40;;;;;;5115782;28;20084;-74
2022/02/27 07:24:42;;;;;;;0.75;0.70;;;21.60;35.40;;;;;;5097473;28;20058;-74
2022/02/27 07:27:08;;;;;;;1.02;0.80;;;21.60;35.30;;;;;;5115723;28;20445;-74
2022/02/27 07:29:33;;;;;;;0.63;0.60;;;21.60;35.20;;;;;;5115948;28;20055;-73
2022/02/27 07:32:00;;;;;;;0.77;0.70;;;21.60;35.20;;;;;;5097184;28;20390;-73
2022/02/27 07:34:25;;;;;;;0.55;0.55;;;21.70;35.20;;;;;;5115443;28;20567;-73
2022/02/27 07:36:52;;;;;;;0.60;0.60;;;21.70;35.10;;;;;;5115607;28;20142;-74
2022/02/27 07:39:20;;;;;;;0.52;0.50;;;21.80;35.10;;;;;;5115338;28;20051;-73
2022/02/27 07:41:45;;;;;;;0.70;0.70;;;21.80;35.10;;;;;;5115523;28;20116;-73
2022/02/27 07:44:14;;;;;;;0.60;0.60;;;21.80;35.10;;;;;;5096445;28;20143;-73
2022/02/27 07:46:39;;;;;;;1.00;0.70;;;21.80;35.10;;;;;;5114137;28;20075;-74
2022/02/27 07:49:07;;;;;;;0.77;0.60;;;21.80;35.00;;;;;;5115136;28;20140;-74
2022/02/27 07:51:33;;;;;;;0.90;0.65;;;21.80;35.00;;;;;;5115236;28;20403;-74
2022/02/27 07:53:58;;;;;;;0.77;0.70;;;21.80;34.90;;;;;;5114939;28;20172;-73
2022/02/27 07:56:24;;;;;;;0.80;0.60;;;21.80;34.90;;;;;;5115105;28;20048;-73
2022/02/27 07:58:52;;;;;;;0.50;0.40;;;21.80;34.90;;;;;;5114840;28;20090;-73
2022/02/27 08:01:17;;;;;;;0.98;0.50;;;21.80;35.00;;;;;;5114942;28;20051;-73
2022/02/27 08:03:43;;;;;;;0.50;0.50;;;21.80;35.00;;;;;;5114931;28;20396;-73
2022/02/27 08:06:09;;;;;;;1.50;0.90;;;21.80;35.00;;;;;;5114907;28;20062;-74
2022/02/27 08:08:34;;;;;;;0.70;0.60;;;21.80;35.00;;;;;;5114965;28;20051;-73
2022/02/27 08:11:00;;;;;;;0.57;0.57;;;21.80;35.10;;;;;;5115000;28;20054;-73
2022/02/27 08:13:25;;;;;;;0.70;0.70;;;21.70;35.10;;;;;;5114796;28;20426;-73
2022/02/27 08:15:51;;;;;;;0.57;0.57;;;21.70;35.10;;;;;;5114981;28;20059;-73
2022/02/27 08:18:17;;;;;;;0.75;0.65;;;21.70;35.10;;;;;;5114835;28;20076;-74
2022/02/27 08:20:43;;;;;;;0.60;0.60;;;21.60;35.20;;;;;;5114779;28;20047;-74
2022/02/27 08:23:09;;;;;;;0.63;0.60;;;21.60;35.20;;;;;;5115103;28;20056;-74
2022/02/27 08:25:34;;;;;;;0.70;0.70;;;21.60;35.30;;;;;;5114768;28;20105;-74
2022/02/27 08:28:00;;;;;;;0.70;0.70;;;21.50;35.30;;;;;;5114535;28;20587;-73
2022/02/27 08:30:26;;;;;;;0.60;0.60;;;21.50;35.30;;;;;;5114783;28;20138;-73
2022/02/27 08:32:51;;;;;;;0.52;0.52;;;21.50;35.40;;;;;;5114528;28;20449;-73
2022/02/27 08:35:17;;;;;;;0.60;0.60;;;21.40;35.40;;;;;;5114573;28;20078;-73
2022/02/27 08:37:44;;;;;;;0.98;0.80;;;21.40;35.40;;;;;;5114751;28;20521;-73
2022/02/27 08:40:10;;;;;;;0.70;0.70;;;21.40;35.60;;;;;;5114559;28;20059;-73
2022/02/27 08:42:36;;;;;;;1.08;0.90;;;21.30;35.60;;;;;;5114505;28;20407;-73
2022/02/27 08:45:02;;;;;;;0.68;0.68;;;21.30;35.70;;;;;;5114508;28;20103;-73
2022/02/27 08:47:27;;;;;;;0.85;0.82;;;21.30;35.70;;;;;;5114419;28;20051;-73
2022/02/27 08:49:53;;;;;;;0.65;0.50;;;21.20;35.80;;;;;;5112077;28;20181;-73
2022/02/27 08:52:19;;;;;;;0.60;0.60;;;21.20;35.80;;;;;;5114416;28;20087;-73
2022/02/27 08:54:46;;;;;;;0.70;0.60;;;21.20;35.90;;;;;;5114263;28;20410;-73
2022/02/27 08:57:12;;;;;;;0.80;0.80;;;21.10;35.90;;;;;;5111855;28;20140;-74
2022/02/27 08:59:38;;;;;;;1.17;0.70;;;21.10;36.00;;;;;;5095966;28;20052;-73
2022/02/27 09:02:04;;;;;;;0.70;0.70;;;21.10;36.00;;;;;;5114304;28;20463;-73
2022/02/27 09:04:29;;;;;;;1.65;0.80;;;21.10;36.00;;;;;;5114420;28;20048;-73
2022/02/27 09:06:55;;;;;;;0.80;0.70;;;21.00;36.00;;;;;;5114376;28;20445;-73
2022/02/27 09:09:20;;;;;;;0.60;0.60;;;21.00;36.10;;;;;;5114028;28;20135;-73
2022/02/27 09:11:47;;;;;;;0.70;0.70;;;21.00;36.10;;;;;;5114306;28;20055;-73
2022/02/27 09:14:13;;;;;;;0.70;0.70;;;20.90;36.10;;;;;;5112599;28;20062;-74
2022/02/27 09:16:38;;;;;;;0.60;0.60;;;20.90;36.10;;;;;;5095667;28;20047;-73
2022/02/27 09:19:04;;;;;;;0.82;0.70;;;21.00;36.30;;;;;;5113788;28;20081;-74
2022/02/27 09:21:30;;;;;;;0.88;0.77;;;20.90;36.20;;;;;;5113513;28;20063;-73
2022/02/27 09:23:56;;;;;;;0.73;0.60;;;20.90;36.30;;;;;;5111185;28;20469;-73
2022/02/27 09:26:22;;;;;;;0.70;0.70;;;20.90;36.90;;;;;;5113571;28;20512;-73
2022/02/27 09:28:48;;;;;;;0.63;0.63;;;20.90;36.30;;;;;;5113542;28;20063;-73
2022/02/27 09:31:14;;;;;;;0.80;0.68;;;20.90;36.30;;;;;;5113601;28;20047;-73
2022/02/27 09:33:40;;;;;;;0.93;0.85;;;20.90;36.30;;;;;;5113350;28;20047;-73
2022/02/27 09:36:10;;;;;;;0.50;0.50;;;20.90;36.30;;;;;;5113600;28;20047;-74
2022/02/27 09:38:38;;;;;;;;;;;20.90;36.30;;;;;;5112151;28;20104;-74
2022/02/27 09:41:04;;;;;;;0.75;0.70;;;20.80;36.30;;;;;;5095117;28;20359;-73
2022/02/27 09:43:29;;;;;;;1.02;0.70;;;20.80;36.30;;;;;;5113605;28;20054;-73
2022/02/27 09:45:55;;;;;;;0.70;0.70;;;20.80;36.30;;;;;;5113507;28;20051;-73
2022/02/27 09:48:21;;;;;;;0.93;0.80;;;20.80;36.30;;;;;;5113434;28;20060;-74
2022/02/27 09:50:51;;;;;;;0.73;0.73;;;20.90;36.40;;;;;;5095138;28;20059;-74
2022/02/27 09:53:17;;;;;;;0.88;0.80;;;20.80;36.30;;;;;;5113311;28;20039;-73
2022/02/27 09:55:43;;;;;;;0.68;0.63;;;20.80;36.30;;;;;;5113333;28;20118;-73
2022/02/27 09:58:10;;;;;;;0.60;0.60;;;20.80;36.30;;;;;;5113573;28;20048;-73
2022/02/27 10:00:36;;;;;;;1.25;0.82;;;20.80;36.40;;;;;;5113336;28;20054;-73
2022/02/27 10:03:14;;;;;;;0.75;0.75;;;20.80;36.40;;;;;;5093521;28;20056;-74
2022/02/27 10:05:44;;;;;;;0.70;0.70;;;20.80;36.40;;;;;;5113204;28;20062;-73
2022/02/27 10:08:11;;;;;;;0.60;0.60;;;20.80;36.40;;;;;;5113225;28;20055;-73
2022/02/27 10:10:39;;;;;;;0.70;0.70;;;20.80;36.40;;;;;;5095217;28;20075;-73
2022/02/27 10:13:06;;;;;;;0.60;0.60;;;20.80;36.40;;;;;;5094516;28;20495;-74
2022/02/27 10:15:34;;;;;;;0.70;0.70;;;20.80;36.30;;;;;;5094847;28;20558;-74
2022/02/27 10:18:15;;;;;;;0.70;0.70;;;20.80;36.40;;;;;;5113096;28;20083;-73
2022/02/27 10:20:42;;;;;;;0.80;0.80;;;20.80;36.40;;;;;;5112862;28;20483;-73
2022/02/27 10:23:07;;;;;;;0.73;0.73;;;20.80;36.40;;;;;;5094714;28;20048;-74
2022/02/27 10:25:33;;;;;;;0.57;0.57;;;20.80;36.40;;;;;;5113026;28;20056;-73
2022/02/27 10:28:00;;;;;;;0.70;0.70;;;20.80;36.40;;;;;;5111612;28;20047;-73
2022/02/27 10:30:28;;;;;;;0.70;0.70;;;20.80;36.40;;;;;;5112791;28;20063;-73
2022/02/27 10:32:58;;;;;;;0.73;0.73;;;20.80;36.30;;;;;;5113122;28;20398;-73
2022/02/27 10:35:45;;;;;;;0.73;0.73;;;20.80;36.30;;;;;;5112866;28;20063;-73
2022/02/27 10:41:12;;;;;;;0.80;0.80;;;20.80;36.30;;;;;;5110260;28;20092;-73
2022/02/27 10:43:43;;;;;;;0.57;0.57;;;20.80;36.40;;;;;;5112658;28;20089;-73
2022/02/27 10:46:10;;;;;;;0.63;0.60;;;20.80;36.30;;;;;;5110126;28;20098;-73
2022/02/27 10:48:36;;;;;;;0.90;0.63;;;20.80;36.30;;;;;;5092317;28;20100;-73
2022/02/27 10:51:08;;;;;;;0.70;0.70;;;20.80;36.30;;;;;;5094411;28;20406;-74
2022/02/27 10:53:42;;;;;;;0.70;0.60;;;20.80;36.30;;;;;;5112695;28;20051;-73
2022/02/27 10:56:09;;;;;;;0.68;0.60;;;20.90;36.40;;;;;;5112435;28;20093;-73
2022/02/27 10:58:49;;;;;;;0.82;0.70;;;20.90;36.30;;;;;;5112359;28;20051;-74
2022/02/27 11:01:23;;;;;;;0.70;0.70;;;20.80;36.30;;;;;;5112294;28;20359;-74
2022/02/27 11:03:51;;;;;;;0.60;0.60;;;20.80;36.30;;;;;;5112415;28;20508;-74
2022/02/27 11:06:17;;;;;;;0.70;0.70;;;20.80;36.30;;;;;;5112344;28;20075;-74
2022/02/27 11:08:43;;;;;;;0.73;0.73;;;20.80;36.30;;;;;;5112211;28;20139;-74
2022/02/27 11:11:10;;;;;;;0.60;0.60;;;20.80;36.30;;;;;;5112476;28;20048;-72
2022/02/27 11:13:36;;;;;;;0.70;0.70;;;20.80;36.30;;;;;;5112144;28;20502;-72
2022/02/27 11:16:02;;;;;;;0.70;0.70;;;20.80;36.30;;;;;;5112389;28;20051;-72
2022/02/27 11:18:29;;;;;;;0.80;0.60;;;20.80;36.30;;;;;;5111808;28;20048;-72
2022/02/27 11:20:55;;;;;;;0.75;0.75;;;20.80;36.30;;;;;;5115220;28;20058;-74
2022/02/27 11:23:21;;;;;;;0.70;0.70;;;20.80;36.30;;;;;;5116065;28;20101;-74
2022/02/27 11:25:48;;;;;;;0.60;0.60;;;20.80;36.30;;;;;;5115816;28;20047;-74
2022/02/27 11:28:21;;;;;;;1.52;0.73;;;20.80;36.30;;;;;;5115592;28;20184;-74
2022/02/27 11:30:51;;;;;;;0.77;0.70;;;20.80;36.30;;;;;;5114467;28;20051;-74
2022/02/27 11:33:23;;;;;;;0.73;0.73;;;20.80;36.30;;;;;;5115753;28;20055;-74
2022/02/27 11:35:55;;;;;;;0.70;0.60;;;20.80;36.30;;;;;;5115933;28;20055;-74
2022/02/27 11:38:28;;;;;;;0.75;0.75;;;20.80;36.30;;;;;;5113882;28;20048;-72
2022/02/27 11:40:56;;;;;;;0.70;0.70;;;20.80;36.30;;;;;;5115871;28;20055;-74
2022/02/27 11:43:39;;;;;;;0.73;0.70;;;20.80;36.30;;;;;;5114337;28;20044;-74
2022/02/27 11:46:05;;;;;;;0.70;0.70;;;20.80;36.90;;;;;;5095857;28;20048;-74
2022/02/27 11:49:09;;;;;;;1.08;0.90;;;20.80;36.90;;;;;;5115016;28;20052;-74
2022/02/27 11:51:38;;;;;;;0.63;0.63;;;20.90;36.30;;;;;;5115416;28;20043;-74
2022/02/27 11:54:16;;;;;;;0.82;0.80;;;20.80;36.30;;;;;;5115177;28;20071;-74
2022/02/27 11:56:57;;;;;;;0.93;0.75;;;20.90;36.30;;;;;;5096867;28;20052;-74
2022/02/27 11:59:47;;;;;;;0.82;0.60;;;20.80;36.30;;;;;;5096984;28;20044;-74
2022/02/27 12:02:25;;;;;;;0.73;0.70;;;20.80;36.30;;;;;;5115050;28;20047;-74
2022/02/27 12:04:52;;;;;;;0.85;0.65;;;20.80;36.30;;;;;;5114373;28;20185;-74
2022/02/27 12:07:18;;;;;;;1.08;0.70;;;20.80;36.30;;;;;;5114836;28;20101;-74
2022/02/27 12:09:50;;;;;;;0.43;0.43;;;20.80;36.30;;;;;;5115060;28;20499;-73
2022/02/27 12:12:32;;;;;;;0.90;0.70;;;20.80;36.30;;;;;;5115305;28;20100;-72
2022/02/27 12:15:31;;;;;;;0.60;0.60;;;20.80;36.30;;;;;;5114858;28;20055;-74
2022/02/27 12:18:16;;;;;;;0.73;0.60;;;20.80;36.30;;;;;;5114680;28;20062;-74
2022/02/27 12:20:50;;;;;;;0.70;0.70;;;20.80;36.30;;;;;;5114754;28;20483;-74
2022/02/27 12:23:28;;;;;;;0.70;0.70;;;20.80;36.30;;;;;;5113783;28;20051;-74
2022/02/27 12:25:55;;;;;;;1.08;0.80;;;20.80;36.40;;;;;;5096521;28;20077;-74
2022/02/27 12:28:52;;;;;;;0.65;0.65;;;20.80;36.40;;;;;;5094195;28;20044;-74
2022/02/27 12:31:22;;;;;;;1.10;0.80;;;20.80;36.40;;;;;;5114505;28;20066;-74
2022/02/27 12:33:49;;;;;;;0.77;0.77;;;20.80;36.40;;;;;;5114665;28;20050;-74
2022/02/27 12:36:29;;;;;;;0.65;0.60;;;20.80;36.40;;;;;;5094759;28;20048;-74
2022/02/27 12:38:59;;;;;;;0.82;0.60;;;20.80;36.40;;;;;;5114436;28;20441;-74
2022/02/27 12:41:32;;;;;;;0.70;0.70;;;20.80;36.40;;;;;;5114440;28;20047;-74
2022/02/27 12:43:58;;;;;;;1.08;0.70;;;20.80;36.40;;;;;;5114419;28;20063;-74
2022/02/27 12:46:25;;;;;;;0.88;0.70;;;20.80;36.40;;;;;;5095841;28;20060;-74
2022/02/27 12:51:37;;;;;;;0.70;0.70;;;20.80;36.40;;;;;;5114241;28;20055;-74
2022/02/27 12:54:13;;;;;;;0.65;0.65;;;20.70;36.40;;;;;;5096641;28;20047;-74